sensor_id;sensor_type;location;lat;lon;timestamp;P1;durP1;ratioP1;P2;durP2;ratioP2
8694;SDS011;65580;49.446;6.854;2023-05-09T00:00:09;14.32;;;8.90;;
8694;SDS011;65580;49.446;6.854;2023-05-09T00:04:14;18.90;;;8.02;;
8694;SDS011;65580;49.446;6.854;2023-05-09T00:08:24;25.45;;;9.10;;
8694;SDS011;65580;49.446;6.854;2023-05-09T00:12:28;15.20;;;7.97;;
8694;SDS011;65580;49.446;6.854;2023-05-09T00:16:31;17.80;;;9.43;;
8694;SDS011;65580;49.446;6.854;2023-05-09T00:20:35;17.83;;;9.50;;
8694;SDS011;65580;49.446;6.854;2023-05-09T00:24:38;17.10;;;9.50;;
8694;SDS011;65580;49.446;6.854;2023-05-09T00:28:41;14.88;;;8.30;;
8694;SDS011;65580;49.446;6.854;2023-05-09T00:32:44;21.88;;;8.82;;
8694;SDS011;65580;49.446;6.854;2023-05-09T00:36:49;13.52;;;7.85;;
8694;SDS011;65580;49.446;6.854;2023-05-09T00:40:52;17.27;;;8.30;;
8694;SDS011;65580;49.446;6.854;2023-05-09T00:44:54;34.40;;;10.18;;
8694;SDS011;65580;49.446;6.854;2023-05-09T00:48:57;12.02;;;8.15;;
8694;SDS011;65580;49.446;6.854;2023-05-09T00:53:01;11.20;;;7.35;;
8694;SDS011;65580;49.446;6.854;2023-05-09T00:57:04;12.05;;;6.63;;
8694;SDS011;65580;49.446;6.854;2023-05-09T01:01:08;6.50;;;4.80;;
8694;SDS011;65580;49.446;6.854;2023-05-09T01:05:11;8.43;;;4.82;;
8694;SDS011;65580;49.446;6.854;2023-05-09T01:09:18;48.42;;;6.18;;
8694;SDS011;65580;49.446;6.854;2023-05-09T01:13:27;10.63;;;5.63;;
8694;SDS011;65580;49.446;6.854;2023-05-09T01:17:36;13.25;;;6.13;;
8694;SDS011;65580;49.446;6.854;2023-05-09T01:21:42;15.32;;;5.82;;
8694;SDS011;65580;49.446;6.854;2023-05-09T01:25:51;13.48;;;7.72;;
8694;SDS011;65580;49.446;6.854;2023-05-09T01:29:59;38.42;;;12.80;;
8694;SDS011;65580;49.446;6.854;2023-05-09T01:34:02;10.20;;;6.57;;
8694;SDS011;65580;49.446;6.854;2023-05-09T01:38:09;11.05;;;6.18;;
8694;SDS011;65580;49.446;6.854;2023-05-09T01:42:14;11.40;;;5.65;;
8694;SDS011;65580;49.446;6.854;2023-05-09T01:46:20;279.52;;;16.15;;
8694;SDS011;65580;49.446;6.854;2023-05-09T01:50:23;10.57;;;6.03;;
8694;SDS011;65580;49.446;6.854;2023-05-09T01:54:26;478.33;;;16.52;;
8694;SDS011;65580;49.446;6.854;2023-05-09T02:02:45;14.98;;;7.57;;
8694;SDS011;65580;49.446;6.854;2023-05-09T02:06:48;17.63;;;10.85;;
8694;SDS011;65580;49.446;6.854;2023-05-09T02:10:52;29.90;;;10.00;;
8694;SDS011;65580;49.446;6.854;2023-05-09T02:14:55;14.02;;;8.55;;
8694;SDS011;65580;49.446;6.854;2023-05-09T02:18:59;11.63;;;8.02;;
8694;SDS011;65580;49.446;6.854;2023-05-09T02:23:02;16.67;;;9.32;;
8694;SDS011;65580;49.446;6.854;2023-05-09T02:27:05;29.95;;;12.35;;
8694;SDS011;65580;49.446;6.854;2023-05-09T02:31:21;20.52;;;10.45;;
8694;SDS011;65580;49.446;6.854;2023-05-09T02:35:27;21.45;;;12.57;;
8694;SDS011;65580;49.446;6.854;2023-05-09T02:39:30;93.65;;;15.73;;
8694;SDS011;65580;49.446;6.854;2023-05-09T02:43:33;23.17;;;11.50;;
8694;SDS011;65580;49.446;6.854;2023-05-09T02:47:36;326.90;;;27.50;;
8694;SDS011;65580;49.446;6.854;2023-05-09T02:55:43;20.88;;;11.23;;
8694;SDS011;65580;49.446;6.854;2023-05-09T02:59:46;19.30;;;10.55;;
8694;SDS011;65580;49.446;6.854;2023-05-09T03:03:49;19.70;;;11.52;;
8694;SDS011;65580;49.446;6.854;2023-05-09T03:07:54;20.67;;;10.40;;
8694;SDS011;65580;49.446;6.854;2023-05-09T03:11:56;19.23;;;10.55;;
8694;SDS011;65580;49.446;6.854;2023-05-09T03:15:59;25.23;;;10.82;;
8694;SDS011;65580;49.446;6.854;2023-05-09T03:20:02;41.42;;;13.65;;
8694;SDS011;65580;49.446;6.854;2023-05-09T03:24:09;22.92;;;11.55;;
8694;SDS011;65580;49.446;6.854;2023-05-09T03:28:19;21.83;;;11.05;;
8694;SDS011;65580;49.446;6.854;2023-05-09T03:32:22;99.00;;;15.77;;
8694;SDS011;65580;49.446;6.854;2023-05-09T03:36:25;49.20;;;13.85;;
8694;SDS011;65580;49.446;6.854;2023-05-09T03:40:29;16.60;;;10.30;;
8694;SDS011;65580;49.446;6.854;2023-05-09T03:44:34;20.73;;;11.82;;
8694;SDS011;65580;49.446;6.854;2023-05-09T03:48:37;93.78;;;17.13;;
8694;SDS011;65580;49.446;6.854;2023-05-09T03:52:40;76.03;;;16.55;;
8694;SDS011;65580;49.446;6.854;2023-05-09T03:56:44;213.00;;;25.35;;
8694;SDS011;65580;49.446;6.854;2023-05-09T04:00:46;68.75;;;19.10;;
8694;SDS011;65580;49.446;6.854;2023-05-09T04:09:21;25.17;;;14.75;;
8694;SDS011;65580;49.446;6.854;2023-05-09T04:13:25;49.40;;;17.35;;
8694;SDS011;65580;49.446;6.854;2023-05-09T04:17:28;28.90;;;13.52;;
8694;SDS011;65580;49.446;6.854;2023-05-09T04:21:31;38.08;;;15.30;;
8694;SDS011;65580;49.446;6.854;2023-05-09T04:25:34;38.33;;;15.05;;
8694;SDS011;65580;49.446;6.854;2023-05-09T04:29:39;23.95;;;13.48;;
8694;SDS011;65580;49.446;6.854;2023-05-09T04:37:52;48.53;;;15.23;;
8694;SDS011;65580;49.446;6.854;2023-05-09T04:41:55;41.03;;;13.82;;
8694;SDS011;65580;49.446;6.854;2023-05-09T04:45:59;56.78;;;18.50;;
8694;SDS011;65580;49.446;6.854;2023-05-09T04:54:12;23.42;;;13.40;;
8694;SDS011;65580;49.446;6.854;2023-05-09T04:58:15;76.05;;;19.83;;
8694;SDS011;65580;49.446;6.854;2023-05-09T05:02:19;22.10;;;12.38;;
8694;SDS011;65580;49.446;6.854;2023-05-09T05:06:22;25.23;;;13.18;;
8694;SDS011;65580;49.446;6.854;2023-05-09T05:10:25;24.35;;;13.10;;
8694;SDS011;65580;49.446;6.854;2023-05-09T05:14:28;28.85;;;14.85;;
8694;SDS011;65580;49.446;6.854;2023-05-09T05:18:33;41.22;;;17.70;;
8694;SDS011;65580;49.446;6.854;2023-05-09T05:22:35;32.13;;;16.23;;
8694;SDS011;65580;49.446;6.854;2023-05-09T05:26:38;50.60;;;20.15;;
8694;SDS011;65580;49.446;6.854;2023-05-09T05:30:41;37.13;;;18.25;;
8694;SDS011;65580;49.446;6.854;2023-05-09T05:39:18;27.55;;;15.10;;
8694;SDS011;65580;49.446;6.854;2023-05-09T05:43:21;36.47;;;18.45;;
8694;SDS011;65580;49.446;6.854;2023-05-09T05:47:24;21.00;;;13.32;;
8694;SDS011;65580;49.446;6.854;2023-05-09T05:51:29;24.80;;;13.82;;
8694;SDS011;65580;49.446;6.854;2023-05-09T05:55:31;24.88;;;14.20;;
8694;SDS011;65580;49.446;6.854;2023-05-09T05:59:35;25.17;;;13.85;;
8694;SDS011;65580;49.446;6.854;2023-05-09T06:07:42;23.17;;;12.90;;
8694;SDS011;65580;49.446;6.854;2023-05-09T06:11:45;23.63;;;13.70;;
8694;SDS011;65580;49.446;6.854;2023-05-09T06:15:55;20.88;;;12.93;;
8694;SDS011;65580;49.446;6.854;2023-05-09T06:20:15;22.52;;;13.32;;
8694;SDS011;65580;49.446;6.854;2023-05-09T06:24:19;27.33;;;14.48;;
8694;SDS011;65580;49.446;6.854;2023-05-09T06:28:35;29.80;;;14.70;;
8694;SDS011;65580;49.446;6.854;2023-05-09T06:32:38;32.47;;;15.82;;
8694;SDS011;65580;49.446;6.854;2023-05-09T06:36:41;32.40;;;16.35;;
8694;SDS011;65580;49.446;6.854;2023-05-09T06:40:46;30.42;;;14.52;;
8694;SDS011;65580;49.446;6.854;2023-05-09T06:44:49;24.95;;;14.63;;
8694;SDS011;65580;49.446;6.854;2023-05-09T06:48:52;23.85;;;13.15;;
8694;SDS011;65580;49.446;6.854;2023-05-09T06:52:54;30.15;;;16.30;;
8694;SDS011;65580;49.446;6.854;2023-05-09T06:56:58;26.10;;;14.90;;
8694;SDS011;65580;49.446;6.854;2023-05-09T07:01:01;23.10;;;13.57;;
8694;SDS011;65580;49.446;6.854;2023-05-09T07:05:04;21.05;;;13.02;;
8694;SDS011;65580;49.446;6.854;2023-05-09T07:09:08;23.40;;;13.00;;
8694;SDS011;65580;49.446;6.854;2023-05-09T07:13:13;20.00;;;11.85;;
8694;SDS011;65580;49.446;6.854;2023-05-09T07:17:16;18.67;;;11.45;;
8694;SDS011;65580;49.446;6.854;2023-05-09T07:21:24;17.27;;;11.55;;
8694;SDS011;65580;49.446;6.854;2023-05-09T07:25:27;17.95;;;9.93;;
8694;SDS011;65580;49.446;6.854;2023-05-09T07:29:31;25.38;;;13.93;;
8694;SDS011;65580;49.446;6.854;2023-05-09T07:33:34;25.35;;;13.07;;
8694;SDS011;65580;49.446;6.854;2023-05-09T07:37:37;19.80;;;11.38;;
8694;SDS011;65580;49.446;6.854;2023-05-09T07:41:40;16.63;;;9.80;;
8694;SDS011;65580;49.446;6.854;2023-05-09T07:45:45;14.10;;;8.95;;
8694;SDS011;65580;49.446;6.854;2023-05-09T07:49:48;14.73;;;8.82;;
8694;SDS011;65580;49.446;6.854;2023-05-09T07:53:51;10.98;;;7.40;;
8694;SDS011;65580;49.446;6.854;2023-05-09T07:57:56;11.55;;;7.80;;
8694;SDS011;65580;49.446;6.854;2023-05-09T08:02:01;14.15;;;9.48;;
8694;SDS011;65580;49.446;6.854;2023-05-09T08:06:04;12.35;;;7.45;;
8694;SDS011;65580;49.446;6.854;2023-05-09T08:10:07;12.07;;;6.68;;
8694;SDS011;65580;49.446;6.854;2023-05-09T08:14:11;11.68;;;6.25;;
8694;SDS011;65580;49.446;6.854;2023-05-09T08:18:17;9.52;;;6.28;;
8694;SDS011;65580;49.446;6.854;2023-05-09T08:22:20;10.60;;;6.45;;
8694;SDS011;65580;49.446;6.854;2023-05-09T08:26:24;9.43;;;5.40;;
8694;SDS011;65580;49.446;6.854;2023-05-09T08:30:28;9.35;;;4.97;;
8694;SDS011;65580;49.446;6.854;2023-05-09T08:34:32;8.07;;;4.80;;
8694;SDS011;65580;49.446;6.854;2023-05-09T08:38:35;7.18;;;5.07;;
8694;SDS011;65580;49.446;6.854;2023-05-09T08:42:40;6.55;;;4.10;;
8694;SDS011;65580;49.446;6.854;2023-05-09T08:46:46;5.93;;;3.72;;
8694;SDS011;65580;49.446;6.854;2023-05-09T08:50:51;6.07;;;3.85;;
8694;SDS011;65580;49.446;6.854;2023-05-09T08:54:55;6.10;;;3.25;;
8694;SDS011;65580;49.446;6.854;2023-05-09T08:58:58;7.03;;;3.25;;
8694;SDS011;65580;49.446;6.854;2023-05-09T09:03:01;5.82;;;2.97;;
8694;SDS011;65580;49.446;6.854;2023-05-09T09:07:06;7.38;;;3.33;;
8694;SDS011;65580;49.446;6.854;2023-05-09T09:11:09;4.90;;;3.33;;
8694;SDS011;65580;49.446;6.854;2023-05-09T09:15:15;7.50;;;3.60;;
8694;SDS011;65580;49.446;6.854;2023-05-09T09:19:19;5.13;;;2.58;;
8694;SDS011;65580;49.446;6.854;2023-05-09T09:23:25;5.65;;;2.88;;
8694;SDS011;65580;49.446;6.854;2023-05-09T09:27:28;6.07;;;3.00;;
8694;SDS011;65580;49.446;6.854;2023-05-09T09:31:33;4.35;;;2.30;;
8694;SDS011;65580;49.446;6.854;2023-05-09T09:35:37;4.32;;;2.25;;
8694;SDS011;65580;49.446;6.854;2023-05-09T09:39:43;4.18;;;2.20;;
8694;SDS011;65580;49.446;6.854;2023-05-09T09:43:55;6.13;;;2.17;;
8694;SDS011;65580;49.446;6.854;2023-05-09T09:47:59;3.58;;;2.03;;
8694;SDS011;65580;49.446;6.854;2023-05-09T09:52:08;4.55;;;2.17;;
8694;SDS011;65580;49.446;6.854;2023-05-09T09:56:12;4.28;;;2.10;;
8694;SDS011;65580;49.446;6.854;2023-05-09T10:00:16;3.58;;;1.90;;
8694;SDS011;65580;49.446;6.854;2023-05-09T10:04:21;3.20;;;1.73;;
8694;SDS011;65580;49.446;6.854;2023-05-09T10:08:25;4.28;;;1.92;;
8694;SDS011;65580;49.446;6.854;2023-05-09T10:16:47;4.30;;;1.90;;
8694;SDS011;65580;49.446;6.854;2023-05-09T10:20:51;6.03;;;2.17;;
8694;SDS011;65580;49.446;6.854;2023-05-09T10:24:58;3.70;;;1.80;;
8694;SDS011;65580;49.446;6.854;2023-05-09T10:29:07;4.43;;;1.90;;
8694;SDS011;65580;49.446;6.854;2023-05-09T10:33:12;2.83;;;2.00;;
8694;SDS011;65580;49.446;6.854;2023-05-09T10:37:17;4.07;;;1.80;;
8694;SDS011;65580;49.446;6.854;2023-05-09T10:41:22;2.80;;;2.00;;
8694;SDS011;65580;49.446;6.854;2023-05-09T10:45:27;3.45;;;1.73;;
8694;SDS011;65580;49.446;6.854;2023-05-09T10:53:55;2.90;;;1.80;;
8694;SDS011;65580;49.446;6.854;2023-05-09T10:57:58;5.18;;;2.00;;
8694;SDS011;65580;49.446;6.854;2023-05-09T11:02:21;4.97;;;2.00;;
8694;SDS011;65580;49.446;6.854;2023-05-09T11:06:39;2.50;;;1.67;;
8694;SDS011;65580;49.446;6.854;2023-05-09T11:10:44;4.93;;;2.00;;
8694;SDS011;65580;49.446;6.854;2023-05-09T11:14:48;5.28;;;1.95;;
8694;SDS011;65580;49.446;6.854;2023-05-09T11:18:54;3.40;;;1.90;;
8694;SDS011;65580;49.446;6.854;2023-05-09T11:22:57;17.20;;;2.60;;
8694;SDS011;65580;49.446;6.854;2023-05-09T11:27:00;2.55;;;1.88;;
8694;SDS011;65580;49.446;6.854;2023-05-09T11:31:16;3.08;;;1.85;;
8694;SDS011;65580;49.446;6.854;2023-05-09T11:35:21;3.22;;;1.80;;
8694;SDS011;65580;49.446;6.854;2023-05-09T11:39:28;3.58;;;2.10;;
8694;SDS011;65580;49.446;6.854;2023-05-09T11:43:31;3.40;;;1.60;;
8694;SDS011;65580;49.446;6.854;2023-05-09T11:47:34;2.67;;;1.73;;
8694;SDS011;65580;49.446;6.854;2023-05-09T11:51:39;3.60;;;1.90;;
8694;SDS011;65580;49.446;6.854;2023-05-09T11:55:43;3.38;;;1.88;;
8694;SDS011;65580;49.446;6.854;2023-05-09T11:59:46;3.25;;;1.80;;
8694;SDS011;65580;49.446;6.854;2023-05-09T12:03:49;3.85;;;1.90;;
8694;SDS011;65580;49.446;6.854;2023-05-09T12:07:54;3.75;;;1.73;;
8694;SDS011;65580;49.446;6.854;2023-05-09T12:11:58;2.25;;;1.75;;
8694;SDS011;65580;49.446;6.854;2023-05-09T12:16:02;2.92;;;1.70;;
8694;SDS011;65580;49.446;6.854;2023-05-09T12:20:07;5.75;;;1.75;;
8694;SDS011;65580;49.446;6.854;2023-05-09T12:24:12;3.47;;;1.80;;
8694;SDS011;65580;49.446;6.854;2023-05-09T12:28:15;4.20;;;2.00;;
8694;SDS011;65580;49.446;6.854;2023-05-09T12:32:19;3.72;;;2.08;;
8694;SDS011;65580;49.446;6.854;2023-05-09T12:36:22;3.53;;;1.63;;
8694;SDS011;65580;49.446;6.854;2023-05-09T12:40:29;3.88;;;1.70;;
8694;SDS011;65580;49.446;6.854;2023-05-09T12:44:32;3.70;;;1.88;;
8694;SDS011;65580;49.446;6.854;2023-05-09T12:48:35;3.10;;;1.88;;
8694;SDS011;65580;49.446;6.854;2023-05-09T12:52:40;2.63;;;1.70;;
8694;SDS011;65580;49.446;6.854;2023-05-09T12:57:05;2.92;;;1.77;;
8694;SDS011;65580;49.446;6.854;2023-05-09T13:01:26;4.50;;;1.80;;
8694;SDS011;65580;49.446;6.854;2023-05-09T13:05:30;5.28;;;1.90;;
8694;SDS011;65580;49.446;6.854;2023-05-09T13:09:34;6.82;;;1.60;;
8694;SDS011;65580;49.446;6.854;2023-05-09T13:13:38;5.45;;;1.80;;
8694;SDS011;65580;49.446;6.854;2023-05-09T13:17:42;2.30;;;1.65;;
8694;SDS011;65580;49.446;6.854;2023-05-09T13:21:45;3.95;;;1.90;;
8694;SDS011;65580;49.446;6.854;2023-05-09T13:25:48;2.40;;;1.80;;
8694;SDS011;65580;49.446;6.854;2023-05-09T13:29:53;2.60;;;1.60;;
8694;SDS011;65580;49.446;6.854;2023-05-09T13:33:57;5.03;;;1.92;;
8694;SDS011;65580;49.446;6.854;2023-05-09T13:38:01;5.53;;;2.00;;
8694;SDS011;65580;49.446;6.854;2023-05-09T13:42:04;9.80;;;2.10;;
8694;SDS011;65580;49.446;6.854;2023-05-09T13:46:09;5.32;;;2.38;;
8694;SDS011;65580;49.446;6.854;2023-05-09T13:50:12;4.80;;;2.13;;
8694;SDS011;65580;49.446;6.854;2023-05-09T13:54:15;4.88;;;2.30;;
8694;SDS011;65580;49.446;6.854;2023-05-09T13:58:20;3.70;;;2.40;;
8694;SDS011;65580;49.446;6.854;2023-05-09T14:02:24;5.55;;;2.80;;
8694;SDS011;65580;49.446;6.854;2023-05-09T14:06:27;6.07;;;2.85;;
8694;SDS011;65580;49.446;6.854;2023-05-09T14:14:34;4.95;;;3.13;;
8694;SDS011;65580;49.446;6.854;2023-05-09T14:18:39;6.53;;;3.78;;
8694;SDS011;65580;49.446;6.854;2023-05-09T14:22:42;5.97;;;3.85;;
8694;SDS011;65580;49.446;6.854;2023-05-09T14:26:45;9.45;;;5.05;;
8694;SDS011;65580;49.446;6.854;2023-05-09T14:30:49;6.78;;;4.38;;
8694;SDS011;65580;49.446;6.854;2023-05-09T14:34:55;6.55;;;4.47;;
8694;SDS011;65580;49.446;6.854;2023-05-09T14:39:00;7.20;;;4.47;;
8694;SDS011;65580;49.446;6.854;2023-05-09T14:43:03;8.30;;;5.57;;
8694;SDS011;65580;49.446;6.854;2023-05-09T14:47:07;8.32;;;4.57;;
8694;SDS011;65580;49.446;6.854;2023-05-09T14:51:12;7.35;;;4.72;;
8694;SDS011;65580;49.446;6.854;2023-05-09T14:55:27;14.15;;;6.55;;
8694;SDS011;65580;49.446;6.854;2023-05-09T14:59:31;8.52;;;5.28;;
8694;SDS011;65580;49.446;6.854;2023-05-09T15:03:37;13.05;;;5.88;;
8694;SDS011;65580;49.446;6.854;2023-05-09T15:11:44;7.18;;;5.25;;
8694;SDS011;65580;49.446;6.854;2023-05-09T15:15:49;14.18;;;9.60;;
8694;SDS011;65580;49.446;6.854;2023-05-09T15:19:53;12.00;;;5.72;;
8694;SDS011;65580;49.446;6.854;2023-05-09T15:23:57;10.18;;;4.60;;
8694;SDS011;65580;49.446;6.854;2023-05-09T15:28:00;10.25;;;4.28;;
8694;SDS011;65580;49.446;6.854;2023-05-09T15:32:03;11.77;;;4.95;;
8694;SDS011;65580;49.446;6.854;2023-05-09T15:36:07;13.75;;;6.10;;
8694;SDS011;65580;49.446;6.854;2023-05-09T15:40:12;6.30;;;4.50;;
8694;SDS011;65580;49.446;6.854;2023-05-09T15:44:16;11.00;;;4.03;;
8694;SDS011;65580;49.446;6.854;2023-05-09T15:48:19;6.75;;;4.10;;
8694;SDS011;65580;49.446;6.854;2023-05-09T15:52:22;8.48;;;4.00;;
8694;SDS011;65580;49.446;6.854;2023-05-09T15:56:27;9.27;;;6.43;;
8694;SDS011;65580;49.446;6.854;2023-05-09T16:00:38;8.65;;;4.43;;
8694;SDS011;65580;49.446;6.854;2023-05-09T16:04:41;6.13;;;4.15;;
8694;SDS011;65580;49.446;6.854;2023-05-09T16:08:44;7.93;;;4.15;;
8694;SDS011;65580;49.446;6.854;2023-05-09T16:12:49;10.38;;;3.65;;
8694;SDS011;65580;49.446;6.854;2023-05-09T16:21:17;6.65;;;3.83;;
8694;SDS011;65580;49.446;6.854;2023-05-09T16:25:20;6.47;;;3.33;;
8694;SDS011;65580;49.446;6.854;2023-05-09T16:29:36;5.82;;;3.30;;
8694;SDS011;65580;49.446;6.854;2023-05-09T16:33:41;9.48;;;3.28;;
8694;SDS011;65580;49.446;6.854;2023-05-09T16:37:45;6.28;;;3.78;;
8694;SDS011;65580;49.446;6.854;2023-05-09T16:41:48;8.07;;;3.60;;
8694;SDS011;65580;49.446;6.854;2023-05-09T16:45:52;5.32;;;3.47;;
8694;SDS011;65580;49.446;6.854;2023-05-09T16:54:29;5.60;;;2.10;;
8694;SDS011;65580;49.446;6.854;2023-05-09T16:58:39;4.28;;;2.03;;
8694;SDS011;65580;49.446;6.854;2023-05-09T17:02:44;4.38;;;1.83;;
8694;SDS011;65580;49.446;6.854;2023-05-09T17:06:47;10.02;;;4.53;;
8694;SDS011;65580;49.446;6.854;2023-05-09T17:10:51;10.95;;;1.52;;
8694;SDS011;65580;49.446;6.854;2023-05-09T17:14:54;3.40;;;1.50;;
8694;SDS011;65580;49.446;6.854;2023-05-09T17:18:59;5.57;;;1.00;;
8694;SDS011;65580;49.446;6.854;2023-05-09T17:23:02;8.88;;;1.25;;
8694;SDS011;65580;49.446;6.854;2023-05-09T17:31:30;2.47;;;1.20;;
8694;SDS011;65580;49.446;6.854;2023-05-09T17:35:36;2.65;;;0.98;;
8694;SDS011;65580;49.446;6.854;2023-05-09T17:44:15;5.07;;;1.35;;
8694;SDS011;65580;49.446;6.854;2023-05-09T17:48:21;2.17;;;1.13;;
8694;SDS011;65580;49.446;6.854;2023-05-09T17:52:26;1.77;;;1.00;;
8694;SDS011;65580;49.446;6.854;2023-05-09T17:56:29;2.25;;;1.27;;
8694;SDS011;65580;49.446;6.854;2023-05-09T18:00:32;4.70;;;0.95;;
8694;SDS011;65580;49.446;6.854;2023-05-09T18:04:36;2.72;;;1.20;;
8694;SDS011;65580;49.446;6.854;2023-05-09T18:08:41;1.10;;;1.00;;
8694;SDS011;65580;49.446;6.854;2023-05-09T18:12:52;2.20;;;1.20;;
8694;SDS011;65580;49.446;6.854;2023-05-09T18:16:55;2.03;;;1.00;;
8694;SDS011;65580;49.446;6.854;2023-05-09T18:20:58;10.82;;;1.35;;
8694;SDS011;65580;49.446;6.854;2023-05-09T18:25:03;2.90;;;1.10;;
8694;SDS011;65580;49.446;6.854;2023-05-09T18:29:06;3.25;;;1.38;;
8694;SDS011;65580;49.446;6.854;2023-05-09T18:33:09;2.83;;;1.25;;
8694;SDS011;65580;49.446;6.854;2023-05-09T18:41:18;4.70;;;1.42;;
8694;SDS011;65580;49.446;6.854;2023-05-09T18:45:22;3.65;;;1.40;;
8694;SDS011;65580;49.446;6.854;2023-05-09T18:49:41;5.15;;;2.15;;
8694;SDS011;65580;49.446;6.854;2023-05-09T18:53:44;2.80;;;2.05;;
8694;SDS011;65580;49.446;6.854;2023-05-09T18:57:49;9.63;;;2.75;;
8694;SDS011;65580;49.446;6.854;2023-05-09T19:01:52;12.73;;;4.90;;
8694;SDS011;65580;49.446;6.854;2023-05-09T19:05:56;6.57;;;2.50;;
8694;SDS011;65580;49.446;6.854;2023-05-09T19:09:59;6.35;;;2.10;;
8694;SDS011;65580;49.446;6.854;2023-05-09T19:14:07;4.93;;;1.92;;
8694;SDS011;65580;49.446;6.854;2023-05-09T19:18:10;3.78;;;2.00;;
8694;SDS011;65580;49.446;6.854;2023-05-09T19:22:14;5.72;;;2.15;;
8694;SDS011;65580;49.446;6.854;2023-05-09T19:26:35;5.35;;;2.50;;
8694;SDS011;65580;49.446;6.854;2023-05-09T19:30:39;3.65;;;1.80;;
8694;SDS011;65580;49.446;6.854;2023-05-09T19:34:51;2.47;;;1.83;;
8694;SDS011;65580;49.446;6.854;2023-05-09T19:38:54;5.57;;;1.58;;
8694;SDS011;65580;49.446;6.854;2023-05-09T19:42:57;4.05;;;1.55;;
8694;SDS011;65580;49.446;6.854;2023-05-09T19:47:03;1.80;;;1.35;;
8694;SDS011;65580;49.446;6.854;2023-05-09T19:51:14;3.25;;;1.50;;
8694;SDS011;65580;49.446;6.854;2023-05-09T19:55:25;2.65;;;1.30;;
8694;SDS011;65580;49.446;6.854;2023-05-09T19:59:42;1.60;;;1.40;;
8694;SDS011;65580;49.446;6.854;2023-05-09T20:03:47;3.08;;;1.80;;
8694;SDS011;65580;49.446;6.854;2023-05-09T20:07:52;2.67;;;1.55;;
8694;SDS011;65580;49.446;6.854;2023-05-09T20:12:01;7.60;;;1.77;;
8694;SDS011;65580;49.446;6.854;2023-05-09T20:16:04;5.90;;;1.85;;
8694;SDS011;65580;49.446;6.854;2023-05-09T20:20:12;3.42;;;1.52;;
8694;SDS011;65580;49.446;6.854;2023-05-09T20:28:20;20.40;;;3.17;;
8694;SDS011;65580;49.446;6.854;2023-05-09T20:32:23;3.65;;;2.53;;
8694;SDS011;65580;49.446;6.854;2023-05-09T20:36:27;9.35;;;2.40;;
8694;SDS011;65580;49.446;6.854;2023-05-09T20:40:30;7.15;;;2.83;;
8694;SDS011;65580;49.446;6.854;2023-05-09T20:44:33;8.02;;;2.40;;
8694;SDS011;65580;49.446;6.854;2023-05-09T20:48:38;4.97;;;3.13;;
8694;SDS011;65580;49.446;6.854;2023-05-09T20:52:42;2.92;;;2.20;;
8694;SDS011;65580;49.446;6.854;2023-05-09T20:56:44;5.72;;;2.60;;
8694;SDS011;65580;49.446;6.854;2023-05-09T21:05:13;5.35;;;3.25;;
8694;SDS011;65580;49.446;6.854;2023-05-09T21:09:17;6.85;;;4.18;;
8694;SDS011;65580;49.446;6.854;2023-05-09T21:13:20;8.65;;;2.53;;
8694;SDS011;65580;49.446;6.854;2023-05-09T21:17:23;9.50;;;3.63;;
8694;SDS011;65580;49.446;6.854;2023-05-09T21:21:26;4.75;;;3.30;;
8694;SDS011;65580;49.446;6.854;2023-05-09T21:25:31;8.07;;;4.75;;
8694;SDS011;65580;49.446;6.854;2023-05-09T21:34:02;10.70;;;4.07;;
8694;SDS011;65580;49.446;6.854;2023-05-09T21:38:10;8.10;;;2.80;;
8694;SDS011;65580;49.446;6.854;2023-05-09T21:42:14;15.13;;;2.65;;
8694;SDS011;65580;49.446;6.854;2023-05-09T21:46:17;11.32;;;2.40;;
8694;SDS011;65580;49.446;6.854;2023-05-09T21:54:33;6.50;;;2.58;;
8694;SDS011;65580;49.446;6.854;2023-05-09T21:58:37;5.35;;;1.65;;
8694;SDS011;65580;49.446;6.854;2023-05-09T22:02:40;10.40;;;2.10;;
8694;SDS011;65580;49.446;6.854;2023-05-09T22:06:44;3.00;;;1.90;;
8694;SDS011;65580;49.446;6.854;2023-05-09T22:10:47;9.43;;;2.03;;
8694;SDS011;65580;49.446;6.854;2023-05-09T22:14:51;2.75;;;1.92;;
8694;SDS011;65580;49.446;6.854;2023-05-09T22:18:57;7.03;;;1.60;;
8694;SDS011;65580;49.446;6.854;2023-05-09T22:23:00;4.05;;;1.55;;
8694;SDS011;65580;49.446;6.854;2023-05-09T22:27:03;3.47;;;1.60;;
8694;SDS011;65580;49.446;6.854;2023-05-09T22:35:10;12.82;;;1.80;;
8694;SDS011;65580;49.446;6.854;2023-05-09T22:39:13;4.20;;;2.42;;
8694;SDS011;65580;49.446;6.854;2023-05-09T22:43:16;8.65;;;2.15;;
8694;SDS011;65580;49.446;6.854;2023-05-09T22:47:21;5.45;;;2.97;;
8694;SDS011;65580;49.446;6.854;2023-05-09T22:51:24;12.50;;;2.85;;
8694;SDS011;65580;49.446;6.854;2023-05-09T22:55:27;2.45;;;1.88;;
8694;SDS011;65580;49.446;6.854;2023-05-09T22:59:31;12.63;;;1.77;;
8694;SDS011;65580;49.446;6.854;2023-05-09T23:03:35;4.85;;;1.50;;
8694;SDS011;65580;49.446;6.854;2023-05-09T23:07:38;2.17;;;1.50;;
8694;SDS011;65580;49.446;6.854;2023-05-09T23:11:40;2.35;;;1.90;;
8694;SDS011;65580;49.446;6.854;2023-05-09T23:15:43;5.30;;;2.35;;
8694;SDS011;65580;49.446;6.854;2023-05-09T23:19:47;6.53;;;1.65;;
8694;SDS011;65580;49.446;6.854;2023-05-09T23:23:50;2.30;;;1.80;;
8694;SDS011;65580;49.446;6.854;2023-05-09T23:27:53;2.22;;;1.80;;
8694;SDS011;65580;49.446;6.854;2023-05-09T23:31:56;7.55;;;2.85;;
8694;SDS011;65580;49.446;6.854;2023-05-09T23:36:00;7.95;;;1.80;;
8694;SDS011;65580;49.446;6.854;2023-05-09T23:40:03;6.88;;;2.83;;
8694;SDS011;65580;49.446;6.854;2023-05-09T23:44:06;6.63;;;1.70;;
8694;SDS011;65580;49.446;6.854;2023-05-09T23:48:09;6.20;;;1.98;;
8694;SDS011;65580;49.446;6.854;2023-05-09T23:52:13;2.33;;;1.50;;
8694;SDS011;65580;49.446;6.854;2023-05-09T23:56:16;7.03;;;1.80;;
